createdAt,value
2019-05-14T00:00:21.620Z,67.20
2019-05-14T00:05:25.816Z,65.80
2019-05-14T00:10:31.989Z,67.60
2019-05-14T00:15:35.058Z,60.80
2019-05-14T00:20:38.706Z,58.80
2019-05-14T00:25:42.357Z,60.50
2019-05-14T00:30:46.077Z,60.00
2019-05-14T00:35:51.463Z,64.90
2019-05-14T00:40:55.381Z,62.80
2019-05-14T00:45:59.027Z,61.30
2019-05-14T00:51:02.655Z,59.60
2019-05-14T00:56:06.302Z,59.10
2019-05-14T01:01:11.858Z,58.70
2019-05-14T01:06:15.547Z,58.20
2019-05-14T01:11:19.222Z,58.30
2019-05-14T01:16:22.858Z,58.90
2019-05-14T01:21:26.591Z,58.40
2019-05-14T01:26:31.012Z,58.20
2019-05-14T01:31:34.904Z,57.60
2019-05-14T01:36:41.194Z,57.00
2019-05-14T01:41:44.433Z,57.30
2019-05-14T01:46:48.014Z,56.50
2019-05-14T01:51:51.601Z,56.60
2019-05-14T01:56:55.196Z,58.20
2019-05-14T02:01:58.864Z,58.50
2019-05-14T02:07:02.781Z,57.20
2019-05-14T02:12:06.500Z,58.20
2019-05-14T02:17:12.188Z,59.60
2019-05-14T02:22:15.758Z,58.30
2019-05-14T02:27:21.251Z,60.70
2019-05-14T02:32:24.666Z,61.20
2019-05-14T02:37:30.149Z,60.80
2019-05-14T02:42:33.640Z,58.00
2019-05-14T02:47:39.716Z,58.00
2019-05-14T02:52:42.990Z,56.00
2019-05-14T02:57:49.816Z,55.00
2019-05-14T03:02:51.811Z,54.00
2019-05-14T03:07:55.548Z,54.10
2019-05-14T03:12:59.285Z,55.10
2019-05-14T03:18:03.009Z,54.10
2019-05-14T03:23:10.584Z,55.00
2019-05-14T03:28:11.983Z,54.20
2019-05-14T03:33:15.636Z,55.80
2019-05-14T03:38:19.824Z,57.50
2019-05-14T03:43:23.813Z,57.00
2019-05-14T03:48:29.599Z,59.10
2019-05-14T03:53:49.742Z,59.60
2019-05-14T03:58:39.408Z,61.50
2019-05-14T04:03:43.381Z,61.10
2019-05-14T04:08:49.710Z,61.80
2019-05-14T04:13:55.036Z,63.10
2019-05-14T04:19:02.136Z,61.70
2019-05-14T04:24:09.503Z,62.50
2019-05-14T04:29:13.427Z,62.60
2019-05-14T04:34:19.494Z,62.20
2019-05-14T04:39:22.382Z,62.40
2019-05-14T04:44:29.481Z,60.60
2019-05-14T04:49:31.337Z,60.40
2019-05-14T04:54:35.062Z,60.40
2019-05-14T04:59:39.978Z,61.00
2019-05-14T05:04:44.125Z,60.80
2019-05-14T05:09:50.162Z,60.50
2019-05-14T05:14:52.938Z,59.70
2019-05-14T05:19:59.119Z,59.70
2019-05-14T05:25:01.830Z,60.80
2019-05-14T05:30:09.326Z,59.70
2019-05-14T05:35:13.450Z,59.00
2019-05-14T05:40:19.760Z,60.00
2019-05-14T05:45:22.754Z,60.30
2019-05-14T05:50:28.562Z,59.20
2019-05-14T05:55:31.738Z,58.50
2019-05-14T06:00:40.396Z,60.50
2019-05-14T06:05:44.496Z,60.10
2019-05-14T06:10:49.041Z,58.70
2019-05-14T06:15:52.745Z,59.80
2019-05-14T06:20:58.598Z,60.30
2019-05-14T06:26:01.729Z,60.30
2019-05-14T06:31:05.342Z,60.70
2019-05-14T06:36:09.023Z,61.30
2019-05-14T06:41:13.006Z,60.50
2019-05-14T06:46:19.013Z,62.20
2019-05-14T06:51:22.173Z,61.20
2019-05-14T06:56:28.068Z,64.20
2019-05-14T07:01:31.192Z,65.50
2019-05-14T07:06:34.837Z,65.70
2019-05-14T07:11:38.986Z,62.80
2019-05-14T07:16:42.733Z,51.40
2019-05-14T07:21:48.961Z,51.60
2019-05-14T07:26:51.654Z,49.50
2019-05-14T07:31:55.241Z,46.60
2019-05-14T07:36:59.182Z,47.00
2019-05-14T07:42:03.214Z,43.10
2019-05-14T07:47:08.260Z,41.40
2019-05-14T07:52:12.142Z,42.10
2019-05-14T07:57:16.148Z,43.90
2019-05-14T08:02:20.187Z,41.10
2019-05-14T08:07:23.914Z,40.10
2019-05-14T08:12:28.518Z,40.80
2019-05-14T08:17:32.301Z,39.80
2019-05-14T08:22:38.319Z,37.00
2019-05-14T08:27:41.843Z,38.00
2019-05-14T08:32:45.778Z,37.60
2019-05-14T08:38:03.465Z,37.00
2019-05-14T08:42:55.121Z,39.60
2019-05-14T08:47:58.792Z,39.10
2019-05-14T08:53:02.526Z,36.20
2019-05-14T08:58:11.070Z,38.00
2019-05-14T09:03:12.037Z,33.60
2019-05-14T09:08:15.634Z,34.40
2019-05-14T09:13:19.592Z,34.90
2019-05-14T09:18:23.183Z,33.70
2019-05-14T09:23:28.677Z,34.10
2019-05-14T09:28:32.089Z,34.50
2019-05-14T09:33:38.646Z,35.60
2019-05-14T09:38:42.473Z,33.60
2019-05-14T09:43:48.416Z,33.20
2019-05-14T09:48:51.482Z,33.00
2019-05-14T09:53:55.222Z,31.90
2019-05-14T09:58:58.905Z,32.30
2019-05-14T10:04:02.622Z,32.60
2019-05-14T10:09:08.509Z,32.30
2019-05-14T10:14:12.006Z,33.00
2019-05-14T10:19:15.666Z,31.40
2019-05-14T10:24:19.316Z,35.70
2019-05-14T10:29:23.237Z,33.90
2019-05-14T10:34:28.726Z,33.60
2019-05-14T10:39:32.067Z,32.40
2019-05-14T10:44:38.471Z,33.70
2019-05-14T10:49:40.914Z,29.80
2019-05-14T10:54:55.480Z,29.80
2019-05-14T10:59:49.879Z,30.50
2019-05-14T11:04:53.891Z,31.60
2019-05-14T11:09:57.484Z,30.30
2019-05-14T11:15:01.410Z,27.50
2019-05-14T11:20:08.082Z,28.20
2019-05-14T11:25:12.208Z,29.20
2019-05-14T11:30:19.016Z,27.30
2019-05-14T11:35:21.915Z,28.00
2019-05-14T11:40:25.592Z,29.10
2019-05-14T11:45:29.737Z,28.80
2019-05-14T11:50:33.392Z,29.20
2019-05-14T11:55:38.888Z,27.80
2019-05-14T12:00:43.145Z,27.50
2019-05-14T12:05:49.162Z,24.60
2019-05-14T12:10:52.002Z,25.60
2019-05-14T12:15:55.663Z,27.60
2019-05-14T12:20:59.584Z,25.90
2019-05-14T12:26:03.394Z,25.80
2019-05-14T12:31:09.293Z,28.90
2019-05-14T12:36:12.435Z,26.70
2019-05-14T12:41:19.058Z,25.50
2019-05-14T12:46:21.557Z,29.30
2019-05-14T12:51:25.166Z,26.60
2019-05-14T12:56:29.519Z,27.70
2019-05-14T13:01:33.298Z,27.20
2019-05-14T13:06:39.916Z,26.60
2019-05-14T13:11:42.427Z,27.70
2019-05-14T13:16:48.485Z,28.80
2019-05-14T13:22:08.777Z,29.70
2019-05-14T13:26:58.810Z,28.50
2019-05-14T13:32:02.485Z,28.20
2019-05-14T13:37:25.750Z,27.70
2019-05-14T13:42:29.879Z,29.80
2019-05-14T13:47:33.805Z,31.30
2019-05-14T13:52:40.517Z,29.40
2019-05-14T13:57:43.047Z,28.70
2019-05-14T14:02:46.770Z,28.60
2019-05-14T14:07:50.532Z,30.70
2019-05-14T14:12:54.613Z,29.50
2019-05-14T14:18:00.446Z,29.90
2019-05-14T14:23:18.887Z,30.90
2019-05-14T14:28:10.074Z,30.70
2019-05-14T14:33:14.295Z,30.50
2019-05-14T14:38:20.091Z,34.40
2019-05-14T14:43:23.287Z,31.20
2019-05-14T14:48:29.918Z,32.60
2019-05-14T14:53:51.255Z,31.20
2019-05-14T14:58:39.196Z,32.90
2019-05-14T15:03:42.805Z,31.00
2019-05-14T15:08:49.423Z,31.30
2019-05-14T15:13:52.382Z,32.10
2019-05-14T15:18:58.327Z,32.00
2019-05-14T15:24:10.105Z,33.30
2019-05-14T15:29:09.691Z,33.20
2019-05-14T15:34:11.985Z,33.00
2019-05-14T15:39:15.659Z,33.10
2019-05-14T15:44:19.699Z,33.10
2019-05-14T15:49:23.470Z,33.00
2019-05-14T15:54:39.931Z,29.20
2019-05-14T15:59:32.444Z,29.20
2019-05-14T16:04:38.570Z,31.90
2019-05-14T16:09:41.283Z,32.00
2019-05-14T16:14:44.881Z,30.10
2019-05-14T16:19:48.778Z,33.20
2019-05-14T16:24:56.872Z,33.00
2019-05-14T16:29:58.646Z,31.10
2019-05-14T16:35:02.444Z,29.50
2019-05-14T16:40:06.988Z,30.70
2019-05-14T16:45:11.418Z,31.30
2019-05-14T16:50:15.550Z,31.10
2019-05-14T16:55:26.452Z,31.40
2019-05-14T17:00:24.669Z,30.40
2019-05-14T17:05:29.999Z,30.00
2019-05-14T17:10:33.742Z,31.40
2019-05-14T17:15:40.566Z,31.70
2019-05-14T17:20:44.158Z,32.10
2019-05-14T17:25:48.587Z,33.00
2019-05-14T17:30:52.445Z,33.00
2019-05-14T17:35:58.467Z,31.00
2019-05-14T17:41:01.725Z,32.50
2019-05-14T17:46:05.378Z,33.00
2019-05-14T17:51:09.592Z,33.30
2019-05-14T17:56:13.404Z,32.20
2019-05-14T18:01:18.289Z,35.20
2019-05-14T18:06:22.102Z,32.80
2019-05-14T18:11:25.685Z,32.40
2019-05-14T18:16:29.348Z,32.70
2019-05-14T18:21:33.425Z,33.40
2019-05-14T18:26:38.567Z,35.30
2019-05-14T18:31:45.390Z,36.00
2019-05-14T18:36:48.921Z,37.20
2019-05-14T18:41:52.597Z,36.50
2019-05-14T18:46:59.201Z,36.80
2019-05-14T18:52:01.660Z,38.40
2019-05-14T18:57:11.295Z,38.90
2019-05-14T19:02:12.899Z,38.80
2019-05-14T19:07:18.695Z,39.50
2019-05-14T19:12:21.883Z,39.70
2019-05-14T19:17:28.154Z,41.30
2019-05-14T19:22:31.247Z,41.00
2019-05-14T19:27:34.918Z,42.10
2019-05-14T19:32:39.496Z,41.60
2019-05-14T19:37:43.241Z,42.80
2019-05-14T19:42:48.549Z,42.70
2019-05-14T19:47:52.682Z,43.50
2019-05-14T19:52:58.789Z,44.30
2019-05-14T19:58:01.979Z,44.00
2019-05-14T20:03:05.661Z,44.10
2019-05-14T20:08:09.867Z,44.30
2019-05-14T20:13:13.991Z,43.70
2019-05-14T20:18:17.654Z,44.20
2019-05-14T20:23:21.241Z,44.60
2019-05-14T20:28:24.853Z,44.40
2019-05-14T20:33:28.439Z,45.10
2019-05-14T20:38:32.606Z,45.30
2019-05-14T20:43:38.313Z,46.00
2019-05-14T20:48:41.601Z,46.30
2019-05-14T20:53:45.395Z,46.60
2019-05-14T20:58:49.052Z,47.90
2019-05-14T21:03:52.638Z,48.90
2019-05-14T21:08:58.328Z,49.10
2019-05-14T21:14:01.633Z,48.20
2019-05-14T21:19:08.588Z,48.70
2019-05-14T21:24:12.461Z,48.10
2019-05-14T21:29:16.138Z,49.50
2019-05-14T21:34:20.251Z,49.50
2019-05-14T21:39:24.271Z,50.10
2019-05-14T21:44:28.435Z,50.60
2019-05-14T21:49:32.090Z,50.30
2019-05-14T21:54:35.746Z,50.10
2019-05-14T21:59:39.499Z,51.80
2019-05-14T22:04:43.724Z,51.00
2019-05-14T22:10:07.418Z,51.60
2019-05-14T22:15:11.375Z,52.00
2019-05-14T22:20:15.313Z,52.00
2019-05-14T22:25:19.170Z,53.70
2019-05-14T22:30:23.202Z,53.10
2019-05-14T22:35:28.323Z,54.10
2019-05-14T22:40:32.320Z,54.30
2019-05-14T22:45:36.446Z,55.80
2019-05-14T22:50:41.472Z,54.90
2019-05-14T22:55:45.232Z,54.60
2019-05-14T23:01:01.534Z,54.90
2019-05-14T23:05:54.094Z,56.60
2019-05-14T23:10:58.954Z,57.30
2019-05-14T23:16:03.082Z,56.30
2019-05-14T23:21:08.853Z,56.70
2019-05-14T23:26:11.986Z,56.60
2019-05-14T23:31:15.639Z,58.60
2019-05-14T23:36:19.387Z,57.40
2019-05-14T23:41:22.965Z,57.80
2019-05-14T23:46:29.010Z,59.30
2019-05-14T23:51:31.797Z,58.80
2019-05-14T23:56:35.373Z,58.90
